createdAt,value
2023-05-08T00:00:26.158Z,95157.28
2023-05-08T00:02:52.908Z,95162.47
2023-05-08T00:05:19.955Z,95161.31
2023-05-08T00:07:46.902Z,95167.72
2023-05-08T00:10:13.703Z,95169.56
2023-05-08T00:12:40.678Z,95155.25
2023-05-08T00:15:09.010Z,95134.91
2023-05-08T00:17:38.362Z,95094.22
2023-05-08T00:20:05.674Z,95121.47
2023-05-08T00:22:32.766Z,95159.00
2023-05-08T00:24:59.517Z,95155.56
2023-05-08T00:27:26.396Z,95180.56
2023-05-08T00:29:53.348Z,95134.78
2023-05-08T00:32:20.231Z,95176.38
2023-05-08T00:34:46.978Z,95175.91
2023-05-08T00:37:13.739Z,95172.25
2023-05-08T00:39:40.531Z,95161.03
2023-05-08T00:42:07.360Z,95153.16
2023-05-08T00:44:34.020Z,95165.97
2023-05-08T00:47:00.960Z,95142.50
2023-05-08T00:49:28.137Z,95182.78
2023-05-08T00:51:56.137Z,95154.78
2023-05-08T00:54:23.738Z,95148.19
2023-05-08T00:56:52.129Z,95147.63
2023-05-08T00:59:21.330Z,95126.16
2023-05-08T01:01:49.409Z,95181.31
2023-05-08T01:04:21.774Z,95178.91
2023-05-08T01:06:49.077Z,95182.72
2023-05-08T01:09:15.930Z,95189.72
2023-05-08T01:11:52.860Z,95146.78
2023-05-08T01:14:31.739Z,95188.38
2023-05-08T01:17:13.892Z,95191.75
2023-05-08T01:19:55.386Z,95189.44
2023-05-08T01:22:44.303Z,95180.72
2023-05-08T01:25:46.107Z,95178.78
2023-05-08T01:28:47.082Z,95183.50
2023-05-08T01:31:45.762Z,95115.28
2023-05-08T01:34:20.289Z,95134.97
2023-05-08T01:36:46.965Z,95176.09
2023-05-08T01:39:32.296Z,95177.47
2023-05-08T01:42:08.534Z,95170.50
2023-05-08T01:44:47.335Z,95173.84
2023-05-08T01:47:16.083Z,95170.50
2023-05-08T01:49:46.797Z,95148.69
2023-05-08T01:52:32.169Z,95117.38
2023-05-08T01:55:12.521Z,95182.47
2023-05-08T01:57:49.456Z,95175.63
2023-05-08T02:00:19.859Z,95142.66
2023-05-08T02:02:49.762Z,95123.88
2023-05-08T02:05:18.498Z,95177.16
2023-05-08T02:07:47.215Z,95178.06
2023-05-08T02:10:15.724Z,95113.03
2023-05-08T02:12:44.199Z,95181.88
2023-05-08T02:15:15.180Z,95179.75
2023-05-08T02:17:44.292Z,95180.81
2023-05-08T02:20:15.244Z,95164.94
2023-05-08T02:22:49.413Z,95108.31
2023-05-08T02:25:17.024Z,95107.09
2023-05-08T02:27:46.669Z,95186.91
2023-05-08T02:30:18.348Z,95100.16
2023-05-08T02:32:47.836Z,95097.09
2023-05-08T02:35:17.165Z,95189.94
2023-05-08T02:37:46.776Z,95159.91
2023-05-08T02:40:17.468Z,95190.69
2023-05-08T02:42:45.901Z,95167.03
2023-05-08T02:45:13.157Z,95176.25
2023-05-08T02:47:47.712Z,95199.88
2023-05-08T02:50:27.243Z,95165.34
2023-05-08T02:53:03.195Z,95115.09
2023-05-08T02:55:43.161Z,95192.63
2023-05-08T02:58:37.783Z,95182.31
2023-05-08T03:01:17.741Z,95133.41
2023-05-08T03:03:46.893Z,95191.84
2023-05-08T03:06:20.887Z,95182.63
2023-05-08T03:08:50.464Z,95164.28
2023-05-08T03:11:21.833Z,95179.75
2023-05-08T03:13:51.576Z,95182.63
2023-05-08T03:16:23.292Z,95186.88
2023-05-08T03:18:54.186Z,95187.66
2023-05-08T03:21:22.876Z,95185.22
2023-05-08T03:23:53.325Z,95186.91
2023-05-08T03:26:21.507Z,95166.31
2023-05-08T03:28:53.822Z,95176.00
2023-05-08T03:31:22.516Z,95189.44
2023-05-08T03:33:53.458Z,95188.22
2023-05-08T03:36:21.526Z,95190.00
2023-05-08T03:38:49.084Z,95159.72
2023-05-08T03:41:15.949Z,95198.72
2023-05-08T03:43:43.765Z,95200.00
2023-05-08T03:46:11.322Z,95167.19
2023-05-08T03:48:38.961Z,95191.03
2023-05-08T03:51:05.852Z,95180.34
2023-05-08T03:53:33.541Z,95166.00
2023-05-08T03:56:01.284Z,95205.13
2023-05-08T03:58:54.764Z,95204.00
2023-05-08T04:01:40.958Z,95205.81
2023-05-08T04:04:17.629Z,95211.00
2023-05-08T04:06:50.357Z,95219.47
2023-05-08T04:09:19.980Z,95216.66
2023-05-08T04:12:08.805Z,95212.53
2023-05-08T04:15:01.462Z,95216.50
2023-05-08T04:17:57.530Z,95229.63
2023-05-08T04:20:27.991Z,95234.16
2023-05-08T04:22:55.860Z,95229.44
2023-05-08T04:25:23.041Z,95224.44
2023-05-08T04:27:55.072Z,95224.06
2023-05-08T04:30:21.898Z,95216.13
2023-05-08T04:32:49.587Z,95223.84
2023-05-08T04:35:16.400Z,95221.88
2023-05-08T04:37:44.044Z,95175.16
2023-05-08T04:40:11.132Z,95221.41
2023-05-08T04:42:39.645Z,95220.38
2023-05-08T04:45:07.116Z,95213.31
2023-05-08T04:47:33.831Z,95218.00
2023-05-08T04:50:02.200Z,95198.28
2023-05-08T04:52:29.977Z,95210.34
2023-05-08T04:54:56.735Z,95205.75
2023-05-08T04:57:23.407Z,95218.44
2023-05-08T04:59:51.401Z,95197.94
2023-05-08T05:02:18.401Z,95164.81
2023-05-08T05:04:45.163Z,95209.13
2023-05-08T05:07:15.730Z,95212.00
2023-05-08T05:09:42.564Z,95209.09
2023-05-08T05:12:09.238Z,95179.75
2023-05-08T05:14:39.928Z,95203.06
2023-05-08T05:17:06.864Z,95197.03
2023-05-08T05:19:33.709Z,95174.53
2023-05-08T05:22:00.863Z,95153.28
2023-05-08T05:24:28.098Z,95163.03
2023-05-08T05:26:55.055Z,95135.00
2023-05-08T05:29:21.918Z,95183.31
2023-05-08T05:31:49.945Z,95216.94
2023-05-08T05:34:16.743Z,95209.38
2023-05-08T05:36:43.734Z,95177.84
2023-05-08T05:39:10.678Z,95149.97
2023-05-08T05:41:37.447Z,95161.41
2023-05-08T05:44:04.400Z,95187.16
2023-05-08T05:46:32.856Z,95156.63
2023-05-08T05:48:59.963Z,95162.63
2023-05-08T05:51:27.723Z,95203.91
2023-05-08T05:53:54.503Z,95198.94
2023-05-08T05:56:21.889Z,95202.97
2023-05-08T05:58:49.132Z,95203.47
2023-05-08T06:01:17.555Z,95195.69
2023-05-08T06:03:44.487Z,95197.03
2023-05-08T06:06:11.375Z,95193.28
2023-05-08T06:08:38.025Z,95191.31
2023-05-08T06:11:04.775Z,95177.50
2023-05-08T06:13:32.842Z,95166.78
2023-05-08T06:15:59.691Z,95188.63
2023-05-08T06:18:26.760Z,95174.56
2023-05-08T06:21:00.098Z,95190.63
2023-05-08T06:23:30.349Z,95177.81
2023-05-08T06:25:57.573Z,95193.84
2023-05-08T06:28:26.185Z,95126.38
2023-05-08T06:30:53.368Z,95151.91
2023-05-08T06:33:24.695Z,95156.25
2023-05-08T06:35:53.631Z,95177.09
2023-05-08T06:38:20.736Z,95172.56
2023-05-08T06:40:50.523Z,95199.66
2023-05-08T06:43:17.882Z,95165.78
2023-05-08T06:45:47.566Z,95163.25
2023-05-08T06:48:14.731Z,95201.59
2023-05-08T06:50:43.102Z,95162.53
2023-05-08T06:53:11.071Z,95197.88
2023-05-08T06:55:38.013Z,95151.72
2023-05-08T06:58:04.888Z,95151.94
2023-05-08T07:00:31.860Z,95120.94
2023-05-08T07:02:58.639Z,95191.34
2023-05-08T07:05:25.410Z,95180.31
2023-05-08T07:07:54.399Z,95210.38
2023-05-08T07:10:23.242Z,95205.75
2023-05-08T07:12:50.297Z,95196.47
2023-05-08T07:15:25.367Z,95187.09
2023-05-08T07:17:54.057Z,95201.84
2023-05-08T07:20:21.795Z,95186.59
2023-05-08T07:22:49.365Z,95190.31
2023-05-08T07:25:17.873Z,95199.81
2023-05-08T07:27:46.218Z,95178.59
2023-05-08T07:30:14.936Z,95178.78
2023-05-08T07:32:42.111Z,95171.72
2023-05-08T07:35:11.578Z,95180.88
2023-05-08T07:37:39.914Z,95193.50
2023-05-08T07:40:07.231Z,95203.66
2023-05-08T07:42:41.670Z,95203.75
2023-05-08T07:45:10.661Z,95199.00
2023-05-08T07:47:50.740Z,95138.00
2023-05-08T07:50:18.494Z,95211.66
2023-05-08T07:52:47.918Z,95137.94
2023-05-08T07:55:16.790Z,95192.00
2023-05-08T07:57:44.597Z,95162.00
2023-05-08T08:00:14.752Z,95204.56
2023-05-08T08:02:45.641Z,95196.59
2023-05-08T08:05:13.735Z,95209.69
2023-05-08T08:07:41.065Z,95199.06
2023-05-08T08:10:09.316Z,95203.06
2023-05-08T08:12:36.293Z,95213.13
2023-05-08T08:15:03.800Z,95202.38
2023-05-08T08:17:30.460Z,95193.03
2023-05-08T08:19:57.447Z,95198.22
2023-05-08T08:22:25.518Z,95199.97
2023-05-08T08:24:55.150Z,95199.09
2023-05-08T08:27:22.251Z,95197.66
2023-05-08T08:29:48.928Z,95199.28
2023-05-08T08:32:15.582Z,95180.69
2023-05-08T08:34:42.464Z,95160.75
2023-05-08T08:37:09.166Z,95181.47
2023-05-08T08:39:35.931Z,95176.84
2023-05-08T08:42:02.895Z,95174.31
2023-05-08T08:44:30.191Z,95170.25
2023-05-08T08:47:00.008Z,95171.16
2023-05-08T08:49:34.791Z,95166.53
2023-05-08T08:52:19.894Z,95154.38
2023-05-08T08:54:47.207Z,95164.66
2023-05-08T08:57:18.377Z,95151.53
2023-05-08T08:59:45.400Z,95152.47
2023-05-08T09:02:17.896Z,95157.09
2023-05-08T09:04:45.508Z,95141.50
2023-05-08T09:07:12.632Z,95136.25
2023-05-08T09:09:44.613Z,95125.75
2023-05-08T09:12:13.003Z,95119.72
2023-05-08T09:14:39.877Z,95124.22
2023-05-08T09:17:06.649Z,95105.41
2023-05-08T09:19:34.807Z,95115.44
2023-05-08T09:22:04.615Z,95118.03
2023-05-08T09:24:57.364Z,95129.28
2023-05-08T09:27:26.399Z,95126.22
2023-05-08T09:30:10.871Z,95134.81
2023-05-08T09:32:40.239Z,95138.34
2023-05-08T09:35:09.016Z,95142.59
2023-05-08T09:37:39.877Z,95147.34
2023-05-08T09:40:21.543Z,95146.81
2023-05-08T09:42:50.411Z,95146.06
2023-05-08T09:45:35.509Z,95145.69
2023-05-08T09:48:02.487Z,95142.47
2023-05-08T09:50:29.153Z,95129.19
2023-05-08T09:52:55.870Z,95127.88
2023-05-08T09:55:22.682Z,95131.63
2023-05-08T09:57:54.510Z,95133.66
2023-05-08T10:00:21.325Z,95124.50
2023-05-08T10:03:01.580Z,95125.81
2023-05-08T10:05:34.823Z,95120.19
2023-05-08T10:08:21.733Z,95126.38
2023-05-08T10:10:48.714Z,95128.22
2023-05-08T10:13:15.945Z,95129.44
2023-05-08T10:15:43.831Z,95114.06
2023-05-08T10:18:12.196Z,95115.34
2023-05-08T10:20:41.082Z,95115.19
2023-05-08T10:23:11.495Z,95109.06
2023-05-08T10:25:45.548Z,95100.06
2023-05-08T10:28:40.697Z,95100.66
2023-05-08T10:31:08.254Z,95102.81
2023-05-08T10:33:39.338Z,95107.16
2023-05-08T10:36:07.310Z,95105.34
2023-05-08T10:38:34.842Z,95110.78
2023-05-08T10:41:02.210Z,95101.63
2023-05-08T10:43:31.099Z,95098.44
2023-05-08T10:46:02.142Z,95102.06
2023-05-08T10:49:05.711Z,95093.84
2023-05-08T10:51:47.149Z,95056.91
2023-05-08T10:54:34.242Z,95053.38
2023-05-08T10:57:11.767Z,95084.22
2023-05-08T10:59:38.813Z,95082.63
2023-05-08T11:02:07.393Z,95073.03
2023-05-08T11:04:35.346Z,95061.81
2023-05-08T11:07:03.236Z,95059.03
2023-05-08T11:09:45.220Z,95061.94
2023-05-08T11:12:20.708Z,95053.28
2023-05-08T11:14:57.562Z,95043.00
2023-05-08T11:17:25.596Z,95046.59
2023-05-08T11:19:58.226Z,95047.38
2023-05-08T11:22:34.731Z,95046.59
2023-05-08T11:25:09.251Z,95039.88
2023-05-08T11:27:51.319Z,95042.84
2023-05-08T11:30:34.979Z,95034.88
2023-05-08T11:35:51.800Z,95018.56
2023-05-08T11:38:24.018Z,95006.84
2023-05-08T11:40:59.895Z,95007.91
2023-05-08T11:43:36.893Z,94993.31
2023-05-08T11:46:06.716Z,95004.50
2023-05-08T11:48:34.407Z,94975.19
2023-05-08T11:51:02.474Z,95004.03
2023-05-08T11:53:33.786Z,94993.44
2023-05-08T11:56:01.647Z,94977.78
2023-05-08T11:58:28.878Z,94996.78
2023-05-08T12:00:58.869Z,94993.00
2023-05-08T12:03:26.824Z,94992.22
2023-05-08T12:05:58.359Z,94983.84
2023-05-08T12:08:26.713Z,94995.84
2023-05-08T12:11:00.567Z,94928.78
2023-05-08T12:13:39.049Z,94985.16
2023-05-08T12:16:22.354Z,94930.16
2023-05-08T12:18:53.878Z,94981.94
2023-05-08T12:21:21.662Z,94973.66
2023-05-08T12:23:49.417Z,94979.06
2023-05-08T12:26:16.348Z,94973.88
2023-05-08T12:28:49.868Z,94976.47
2023-05-08T12:31:19.160Z,94972.03
2023-05-08T12:33:47.044Z,94968.38
2023-05-08T12:36:19.999Z,94943.41
2023-05-08T12:38:47.688Z,94959.69
2023-05-08T12:41:28.592Z,94971.03
2023-05-08T12:43:57.632Z,94968.53
2023-05-08T12:46:25.818Z,94915.63
2023-05-08T12:49:02.171Z,94964.50
2023-05-08T12:51:31.974Z,94943.59
2023-05-08T12:54:13.569Z,94955.03
2023-05-08T12:59:47.216Z,94872.78
2023-05-08T13:02:21.297Z,94969.91
2023-05-08T13:05:03.906Z,94872.69
2023-05-08T13:07:35.164Z,94982.50
2023-05-08T13:10:06.126Z,94935.06
2023-05-08T13:12:39.101Z,94978.28
2023-05-08T13:15:07.231Z,94976.44
2023-05-08T13:17:38.195Z,94945.72
2023-05-08T13:20:10.653Z,94939.47
2023-05-08T13:22:37.492Z,94988.41
2023-05-08T13:25:04.644Z,95002.94
2023-05-08T13:27:31.351Z,95006.41
2023-05-08T13:29:58.026Z,94973.56
2023-05-08T13:32:24.876Z,95006.75
2023-05-08T13:34:53.148Z,94986.41
2023-05-08T13:37:26.916Z,94924.88
2023-05-08T13:39:53.759Z,95031.84
2023-05-08T13:42:20.822Z,94989.66
2023-05-08T13:44:47.616Z,95000.94
2023-05-08T13:47:14.478Z,95016.78
2023-05-08T13:49:41.149Z,94997.94
2023-05-08T13:52:07.776Z,95012.16
2023-05-08T13:54:34.518Z,95039.56
2023-05-08T13:57:02.741Z,95039.69
2023-05-08T13:59:31.536Z,95038.00
2023-05-08T14:01:58.572Z,95046.22
2023-05-08T14:04:25.464Z,95023.63
2023-05-08T14:06:52.268Z,95051.22
2023-05-08T14:09:19.251Z,95043.78
2023-05-08T14:11:45.970Z,95055.03
2023-05-08T14:14:12.817Z,95072.84
2023-05-08T14:16:39.863Z,95058.56
2023-05-08T14:19:06.707Z,95028.31
2023-05-08T14:21:34.799Z,95079.38
2023-05-08T14:24:02.658Z,95073.06
2023-05-08T14:26:29.405Z,95023.78
2023-05-08T14:28:56.292Z,95054.56
2023-05-08T14:31:23.526Z,95085.88
2023-05-08T14:33:50.282Z,94998.50
2023-05-08T14:36:17.105Z,95098.41
2023-05-08T14:38:44.163Z,95099.19
2023-05-08T14:41:10.942Z,95091.91
2023-05-08T14:43:37.773Z,95035.28
2023-05-08T14:46:04.980Z,95098.88
2023-05-08T14:48:31.805Z,95099.81
2023-05-08T14:50:58.824Z,95106.81
2023-05-08T14:53:25.800Z,95106.09
2023-05-08T14:55:53.107Z,95099.84
2023-05-08T14:58:20.068Z,95083.31
2023-05-08T15:00:47.154Z,95078.78
2023-05-08T15:03:14.134Z,95019.09
2023-05-08T15:05:46.139Z,95108.72
2023-05-08T15:08:13.677Z,95130.06
2023-05-08T15:10:43.834Z,95113.97
2023-05-08T15:13:11.063Z,94999.31
2023-05-08T15:15:41.425Z,95083.19
2023-05-08T15:18:20.342Z,95055.06
2023-05-08T15:21:00.113Z,95041.97
2023-05-08T15:23:31.783Z,95046.25
2023-05-08T15:26:08.435Z,95029.66
2023-05-08T15:28:41.525Z,95133.00
2023-05-08T15:31:09.200Z,95057.78
2023-05-08T15:33:36.804Z,95045.75
2023-05-08T15:36:14.185Z,95133.34
2023-05-08T15:38:42.560Z,95045.00
2023-05-08T15:41:15.748Z,95140.59
2023-05-08T15:43:48.152Z,95030.38
2023-05-08T15:46:18.851Z,95148.34
2023-05-08T15:48:54.804Z,95058.28
2023-05-08T15:51:26.882Z,95143.78
2023-05-08T15:53:54.598Z,95136.94
2023-05-08T15:56:26.330Z,95097.81
2023-05-08T15:58:56.718Z,95070.25
2023-05-08T16:01:27.116Z,95117.28
2023-05-08T16:04:04.241Z,95137.16
2023-05-08T16:06:32.933Z,95138.41
2023-05-08T16:09:03.879Z,95093.75
2023-05-08T16:11:37.631Z,95027.00
2023-05-08T16:14:04.482Z,95035.72
2023-05-08T16:16:31.512Z,95154.59
2023-05-08T16:18:58.372Z,95141.84
2023-05-08T16:21:27.575Z,95125.53
2023-05-08T16:23:58.979Z,95138.50
2023-05-08T16:26:26.502Z,95035.22
2023-05-08T16:28:53.427Z,95124.47
2023-05-08T16:31:20.287Z,95055.44
2023-05-08T16:33:46.987Z,95162.72
2023-05-08T16:36:13.744Z,95158.66
2023-05-08T16:38:40.581Z,95167.59
2023-05-08T16:41:10.158Z,95136.97
2023-05-08T16:43:37.690Z,95130.38
2023-05-08T16:46:08.463Z,95037.44
2023-05-08T16:48:35.730Z,95178.97
2023-05-08T16:51:02.839Z,95156.91
2023-05-08T16:53:29.680Z,95191.44
2023-05-08T16:55:56.542Z,95184.53
2023-05-08T16:58:23.429Z,95191.13
2023-05-08T17:00:50.235Z,95174.53
2023-05-08T17:03:17.212Z,95189.81
2023-05-08T17:05:44.121Z,95189.41
2023-05-08T17:08:12.168Z,95185.38
2023-05-08T17:10:39.759Z,95196.97
2023-05-08T17:13:08.218Z,95189.00
2023-05-08T17:15:35.105Z,95195.22
2023-05-08T17:18:04.879Z,95163.69
2023-05-08T17:20:32.579Z,95157.09
2023-05-08T17:22:59.589Z,95205.31
2023-05-08T17:25:27.030Z,95172.66
2023-05-08T17:27:53.844Z,95189.84
2023-05-08T17:30:20.854Z,95191.84
2023-05-08T17:32:51.802Z,95127.59
2023-05-08T17:35:18.943Z,95206.97
2023-05-08T17:37:46.054Z,95155.50
2023-05-08T17:40:13.359Z,95238.03
2023-05-08T17:42:42.590Z,95228.53
2023-05-08T17:45:12.292Z,95221.81
2023-05-08T17:47:42.279Z,95210.47
2023-05-08T17:50:09.985Z,95227.47
2023-05-08T17:52:37.332Z,95181.09
2023-05-08T17:55:04.278Z,95229.06
2023-05-08T17:57:31.213Z,95238.78
2023-05-08T17:59:58.034Z,95217.19
2023-05-08T18:02:25.026Z,95216.13
2023-05-08T18:04:52.070Z,95219.72
2023-05-08T18:07:18.800Z,95214.25
2023-05-08T18:09:45.620Z,95193.50
2023-05-08T18:12:12.350Z,95233.97
2023-05-08T18:14:39.126Z,95230.56
2023-05-08T18:17:07.575Z,95161.50
2023-05-08T18:19:34.405Z,95204.53
2023-05-08T18:22:01.334Z,95253.25
2023-05-08T18:24:29.568Z,95246.91
2023-05-08T18:26:56.367Z,95236.16
2023-05-08T18:29:23.694Z,95205.38
2023-05-08T18:31:50.540Z,95264.19
2023-05-08T18:34:20.078Z,95271.75
2023-05-08T18:36:46.861Z,95278.66
2023-05-08T18:39:13.572Z,95226.91
2023-05-08T18:41:40.404Z,95282.41
2023-05-08T18:44:07.295Z,95279.09
2023-05-08T18:46:36.428Z,95289.19
2023-05-08T18:49:05.617Z,95286.94
2023-05-08T18:51:32.335Z,95293.75
2023-05-08T18:53:59.826Z,95276.56
2023-05-08T18:56:26.574Z,95286.06
2023-05-08T18:58:53.289Z,95291.94
2023-05-08T19:01:21.472Z,95302.22
2023-05-08T19:03:48.502Z,95286.16
2023-05-08T19:06:15.894Z,95295.97
2023-05-08T19:08:44.102Z,95300.81
2023-05-08T19:11:10.898Z,95315.91
2023-05-08T19:13:44.244Z,95312.41
2023-05-08T19:16:12.348Z,95302.69
2023-05-08T19:18:39.174Z,95272.22
2023-05-08T19:21:06.863Z,95255.75
2023-05-08T19:23:33.727Z,95313.34
2023-05-08T19:26:00.546Z,95304.56
2023-05-08T19:28:27.306Z,95316.56
2023-05-08T19:30:54.283Z,95298.06
2023-05-08T19:33:24.193Z,95286.50
2023-05-08T19:35:54.697Z,95307.13
2023-05-08T19:38:21.549Z,95323.47
2023-05-08T19:40:56.994Z,95314.59
2023-05-08T19:43:28.119Z,95272.91
2023-05-08T19:45:55.710Z,95317.72
2023-05-08T19:48:22.868Z,95332.09
2023-05-08T19:50:51.374Z,95277.31
2023-05-08T19:53:23.785Z,95284.22
2023-05-08T19:55:50.694Z,95327.75
2023-05-08T19:58:20.900Z,95322.00
2023-05-08T20:03:44.186Z,95322.59
2023-05-08T20:06:13.962Z,95346.38
2023-05-08T20:08:41.147Z,95326.25
2023-05-08T20:11:11.835Z,95295.47
2023-05-08T20:13:39.379Z,95332.88
2023-05-08T20:16:07.017Z,95325.09
2023-05-08T20:18:35.339Z,95277.16
2023-05-08T20:21:02.666Z,95325.00
2023-05-08T20:23:31.477Z,95273.00
2023-05-08T20:25:58.814Z,95278.84
2023-05-08T20:28:26.340Z,95258.63
2023-05-08T20:30:57.675Z,95205.16
2023-05-08T20:33:24.375Z,95282.06
2023-05-08T20:35:52.070Z,95332.97
2023-05-08T20:38:19.120Z,95319.06
2023-05-08T20:40:46.334Z,95317.75
2023-05-08T20:43:13.018Z,95317.75
2023-05-08T20:45:39.682Z,95316.44
2023-05-08T20:48:06.462Z,95302.47
2023-05-08T20:50:33.348Z,95284.41
2023-05-08T20:53:01.509Z,95312.56
2023-05-08T20:55:28.348Z,95323.63
2023-05-08T20:57:54.960Z,95307.84
2023-05-08T21:00:21.630Z,95304.63
2023-05-08T21:02:48.400Z,95313.59
2023-05-08T21:05:15.440Z,95300.75
2023-05-08T21:07:42.587Z,95309.75
2023-05-08T21:10:09.658Z,95290.22
2023-05-08T21:12:36.611Z,95292.38
2023-05-08T21:15:10.159Z,95294.09
2023-05-08T21:17:38.100Z,95244.13
2023-05-08T21:20:06.750Z,95282.84
2023-05-08T21:26:21.141Z,95265.72
2023-05-08T21:29:09.223Z,95207.38
2023-05-08T21:35:12.227Z,95222.44
2023-05-08T21:37:39.814Z,95261.53
2023-05-08T21:40:07.622Z,95296.63
2023-05-08T21:42:35.641Z,95236.03
2023-05-08T21:45:12.413Z,95265.78
2023-05-08T21:52:58.108Z,95306.66
2023-05-08T21:55:25.222Z,95246.00
2023-05-08T21:57:52.084Z,95275.81
2023-05-08T22:00:19.268Z,95282.81
2023-05-08T22:02:46.032Z,95274.03
2023-05-08T22:05:13.153Z,95283.09
2023-05-08T22:07:40.093Z,95256.66
2023-05-08T22:10:09.320Z,95317.72
2023-05-08T22:12:36.225Z,95272.41
2023-05-08T22:15:07.535Z,95304.63
2023-05-08T22:17:39.617Z,95263.50
2023-05-08T22:20:08.527Z,95263.78
2023-05-08T22:22:35.161Z,95281.69
2023-05-08T22:25:02.089Z,95216.97
2023-05-08T22:27:28.743Z,95302.25
2023-05-08T22:29:55.714Z,95277.22
2023-05-08T22:32:22.937Z,95301.66
2023-05-08T22:34:50.179Z,95305.91
2023-05-08T22:37:20.067Z,95247.06
2023-05-08T22:39:47.103Z,95305.31
2023-05-08T22:42:14.550Z,95293.13
2023-05-08T22:44:41.968Z,95303.59
2023-05-08T22:47:09.505Z,95301.28
2023-05-08T22:49:36.540Z,95308.88
2023-05-08T22:52:03.181Z,95306.72
2023-05-08T22:54:30.103Z,95261.16
2023-05-08T22:56:56.979Z,95295.56
2023-05-08T22:59:25.294Z,95241.94
2023-05-08T23:01:52.389Z,95229.66
2023-05-08T23:04:19.289Z,95210.28
2023-05-08T23:06:46.037Z,95300.94
2023-05-08T23:09:12.635Z,95290.06
2023-05-08T23:11:39.381Z,95267.53
2023-05-08T23:14:06.114Z,95296.03
2023-05-08T23:16:32.869Z,95276.94
2023-05-08T23:18:59.573Z,95300.78
2023-05-08T23:21:26.751Z,95287.47
2023-05-08T23:23:54.332Z,95301.53
2023-05-08T23:26:21.557Z,95294.09
2023-05-08T23:28:48.825Z,95296.28
2023-05-08T23:31:17.043Z,95300.38
2023-05-08T23:33:43.832Z,95286.44
2023-05-08T23:36:10.558Z,95264.22
2023-05-08T23:38:37.334Z,95282.53
2023-05-08T23:41:04.076Z,95266.44
2023-05-08T23:43:30.856Z,95283.50
2023-05-08T23:45:58.191Z,95284.16
2023-05-08T23:48:25.884Z,95289.03
2023-05-08T23:50:52.550Z,95270.84
2023-05-08T23:53:19.832Z,95232.88
2023-05-08T23:55:49.855Z,95271.53
2023-05-08T23:58:18.387Z,95269.53
